Nearby METAR Reports

 

KNFE - Fentress Naval, Virginia, USA
Distance from station: ENE 5mi, 7km
Updated: Wed, 01-Apr-2020 11:56pm EDT
Clear
Clear
 Wind from calm
Wind: Calm
Temperature: 45°F , 7°C
Dew Point: 37°F , 3°C
Humidity: 76%
Barometer: 29.87 inHg , 1011.5 hPa
Clouds: Clear
Visibility: 10 miles , 16 km
2020/04/02 03:56 KNFE 020356Z AUTO 00000KT 10SM CLR 07/03 A2987 RMK AO2 SLP118 T00670028
KCPK - Chesapeake, Virginia, USA
Distance from station: W 6mi, 9km
Updated: Thu, 02-Apr-2020 12:35am EDT
Overcast
Overcast
 Wind from W
Wind: W 5 mph , 7 km/h
Temperature: 45°F , 7°C
Wind Chill: 42°F , 6°C
Dew Point: 39°F , 4°C
Humidity: 81%
Barometer: 29.88 inHg , 1011.9 hPa
Clouds: Overcast
Visibility: 10 miles , 16 km
Cloud details: Overcast 9000 ft
2020/04/02 04:35 KCPK 020435Z AUTO 26004KT 10SM OVC090 07/04 A2988 RMK AO2 T00650035
 
KNTU - Oceana Nas/Souce, Virginia, USA
Distance from station: NE 14mi, 23km
Updated: Wed, 01-Apr-2020 11:56pm EDT
Partly cloudy
Partly cloudy
 Wind from WSW
Wind: WSW 7 mph , 11 km/h
Temperature: 43°F , 6°C
Wind Chill: 39°F , 4°C
Dew Point: 37°F , 3°C
Humidity: 81%
Barometer: 29.86 inHg , 1011.2 hPa
Clouds: Partly cloudy
Visibility: 10 miles , 16 km
Cloud details: Partly cloudy 5500 ft
Partly cloudy 9000 ft
2020/04/02 03:56 KNTU 020356Z 25006KT 10SM SCT055 SCT090 06/03 A2986 RMK AO2 SLP113 T00560028
KORF - Norfolk, Virginia, USA
Distance from station: N 15mi, 24km
Updated: Wed, 01-Apr-2020 11:51pm EDT
Clear
Clear
 Wind from WSW
Wind: WSW 5 mph , 7 km/h
Temperature: 48°F , 9°C
Wind Chill: 46°F , 8°C
Dew Point: 39°F , 4°C
Humidity: 71%
Barometer: 29.86 inHg , 1011.2 hPa
Clouds: Clear
Visibility: 10 miles , 16 km
2020/04/02 03:51 KORF 020351Z 25004KT 10SM CLR 09/04 A2986 RMK AO2 SLP112 T00940039
 
KPVG - Norfolk/Hampton, Virginia, USA
Distance from station: WNW 15mi, 24km
Updated: Wed, 01-Apr-2020 11:56pm EDT
Overcast
Overcast
 Wind from W
Wind: W 5 mph , 7 km/h
Temperature: 43°F , 6°C
Wind Chill: 40°F , 4°C
Dew Point: 39°F , 4°C
Humidity: 87%
Barometer: 29.89 inHg , 1012.2 hPa
Clouds: Overcast
Visibility: 10 miles , 16 km
Cloud details: Overcast 9000 ft
2020/04/02 03:56 KPVG 020356Z AUTO 26004KT 10SM OVC090 06/04 A2989 RMK AO2 SLP122 T00560039 401220028
KNGU - Norfolk Nas/Cham, Virginia, USA
Distance from station: N 16mi, 26km
Updated: Wed, 01-Apr-2020 11:59pm EDT
Mostly cloudy
Mostly cloudy
 Wind from W
Wind: W 7 mph , 11 km/h
Temperature: 52°F , 11°C
Dew Point: 39°F , 4°C
Humidity: 62%
Barometer: 29.88 inHg , 1011.9 hPa
Clouds: Mostly cloudy
Visibility: 10 miles , 16 km
Cloud details: Mostly cloudy 9500 ft
2020/04/02 03:59 KNGU 020359Z 27006KT 10SM BKN095 11/04 A2988 RMK AO2 SLP119 T01060044 $
 
KSFQ - Suffolk, Virginia, USA
Distance from station: W 21mi, 34km
Updated: Thu, 02-Apr-2020 12:15am EDT
Overcast
Overcast
 Wind from W
Wind: W 7 mph , 11 km/h
Temperature: 46°F , 8°C
Wind Chill: 42°F , 6°C
Dew Point: 39°F , 4°C
Humidity: 76%
Barometer: 29.89 inHg , 1012.2 hPa
Clouds: Overcast
Visibility: 10 miles , 16 km
Cloud details: Overcast 9000 ft
2020/04/02 04:15 KSFQ 020415Z AUTO 26006KT 10SM OVC090 08/04 A2989 RMK AO2 T00800043
KONX - Currituck, North Carolina, USA
Distance from station: SSE 22mi, 36km
Updated: Thu, 02-Apr-2020 12:15am EDT
Clear
Clear
 Wind from W
Wind: W 6 mph , 9 km/h
Temperature: 43°F , 6°C
Wind Chill: 39°F , 4°C
Dew Point: 39°F , 4°C
Humidity: 87%
Clouds: Clear
Visibility: 10 miles , 16 km
2020/04/02 04:15 KONX 020415Z AUTO 26005KT 10SM CLR 06/04 RMK AO2 T00610041
 
KLFI - Langley Afb/Hamp, Virginia, USA
Distance from station: NNW 28mi, 45km
Updated: Wed, 01-Apr-2020 11:56pm EDT
Overcast
Overcast
 Wind from W
Wind: W 7 mph , 11 km/h
Temperature: 48°F , 9°C
Wind Chill: 45°F , 7°C
Dew Point: 45°F , 7°C
Humidity: 87%
Barometer: 29.86 inHg , 1011.2 hPa
Clouds: Overcast
Visibility: 10 miles , 16 km
Cloud details: Overcast 10000 ft
2020/04/02 03:56 KLFI 020356Z AUTO 28006KT 10SM OVC100 09/07 A2986 RMK AO2 SLP118 T00850068 $
KECG - Elizabeth City, North Carolina, USA
Distance from station: S 29mi, 46km
Updated: Wed, 01-Apr-2020 11:54pm EDT
Clear
Clear
 Wind from W
Wind: W 7 mph , 11 km/h
Temperature: 43°F , 6°C
Wind Chill: 39°F , 4°C
Dew Point: 37°F , 3°C
Humidity: 81%
Barometer: 29.88 inHg , 1011.9 hPa
Clouds: Clear
Visibility: 10 miles , 16 km
2020/04/02 03:54 KECG 020354Z 26006KT 10SM CLR 06/03 A2988 RMK AO2 SLP119 T00610028
 
KPHF - Newport News, Virginia, USA
Distance from station: NNW 35mi, 56km
Updated: Wed, 01-Apr-2020 11:54pm EDT
Overcast
Overcast
 Wind from W
Wind: W 6 mph , 9 km/h
Temperature: 50°F , 10°C
Wind Chill: 48°F , 9°C
Dew Point: 37°F , 3°C
Humidity: 62%
Barometer: 29.87 inHg , 1011.5 hPa
Clouds: Overcast
Visibility: 10 miles , 16 km
Cloud details: Overcast 9500 ft
2020/04/02 03:54 KPHF 020354Z AUTO 28005KT 10SM OVC095 10/03 A2987 RMK AO2 SLP115 T01000033
KFAF - Ft Eustis/Felker, Virginia, USA
Distance from station: NW 37mi, 60km
Updated: Wed, 01-Apr-2020 11:56pm EDT
Light drizzle, Overcast
Light drizzle, Overcast
 Wind from W
Wind: W 6 mph , 9 km/h
Temperature: 48°F , 9°C
Wind Chill: 45°F , 7°C
Dew Point: 39°F , 4°C
Humidity: 71%
Barometer: 29.85 inHg , 1010.8 hPa
Summary: Light Drizzle
Clouds: Overcast
Visibility: 10 miles , 16 km
Cloud details: Overcast 9500 ft
2020/04/02 03:56 KFAF 020356Z AUTO 28005KT 10SM -DZ OVC095 09/04 A2985 RMK AO2 SLP111 P0000 T00940040 $
 
KFKN - Franklin/J B Ros, Virginia, USA
Distance from station: W 38mi, 61km
Updated: Thu, 02-Apr-2020 12:15am EDT
Partly cloudy
Partly cloudy
 Wind from WSW
Wind: WSW 3 mph , 6 km/h
Temperature: 45°F , 7°C
Dew Point: 39°F , 4°C
Humidity: 81%
Barometer: 29.90 inHg , 1012.5 hPa
Clouds: Partly cloudy
Visibility: 10 miles , 16 km
Cloud details: Partly cloudy 6500 ft
Partly cloudy 10000 ft
2020/04/02 04:15 KFKN 020415Z AUTO 25003KT 10SM SCT065 SCT100 07/04 A2990 RMK AO2 T00690035
KJGG - Williamsburg, Virginia, USA
Distance from station: NW 47mi, 76km
Updated: Thu, 02-Apr-2020 12:15am EDT
Overcast
Overcast
 Wind from calm
Wind: Calm
Temperature: 50°F , 10°C
Dew Point: 41°F , 5°C
Humidity: 71%
Barometer: 29.88 inHg , 1011.9 hPa
Clouds: Overcast
Visibility: 10 miles , 16 km
Cloud details: Overcast 9500 ft
2020/04/02 04:15 KJGG 020415Z AUTO 00000KT 10SM OVC095 10/05 A2988 RMK AO1
 
KAKQ - Norfolk/Wakefld, Virginia, USA
Distance from station: WNW 48mi, 78km
Updated: Wed, 01-Apr-2020 11:54pm EDT
Partly cloudy
Partly cloudy
 Wind from WSW
Wind: WSW 3 mph , 6 km/h
Temperature: 45°F , 7°C
Dew Point: 37°F , 3°C
Humidity: 76%
Barometer: 29.89 inHg , 1012.2 hPa
Clouds: Partly cloudy
Visibility: 10 miles , 16 km
Cloud details: Few Clouds 6500 ft
Partly cloudy 9500 ft
2020/04/02 03:54 KAKQ 020354Z AUTO 24003KT 10SM FEW065 SCT095 07/03 A2989 RMK AO2 SLP124 T00720033
KEDE - Edenton, North Carolina, USA
Distance from station: SSW 50mi, 80km
Updated: Thu, 02-Apr-2020 12:15am EDT
Partly cloudy
Partly cloudy
 Wind from WNW
Wind: WNW 5 mph , 7 km/h
Temperature: 48°F , 9°C
Wind Chill: 46°F , 8°C
Dew Point: 43°F , 6°C
Humidity: 82%
Barometer: 29.91 inHg , 1012.9 hPa
Clouds: Partly cloudy
Visibility: 10 miles , 16 km
Cloud details: Partly cloudy 9000 ft
2020/04/02 04:15 KEDE 020415Z AUTO 29004KT 10SM SCT090 09/06 A2991 RMK AO2 T00920057